sensor_id;sensor_type;location;lat;lon;timestamp;temperature;humidity
21559;DHT22;10940;48.890;8.240;2022-08-01T00:00:12;22.40;94.00
21559;DHT22;10940;48.890;8.240;2022-08-01T00:02:39;22.40;94.20
21559;DHT22;10940;48.890;8.240;2022-08-01T00:05:05;22.30;94.40
21559;DHT22;10940;48.890;8.240;2022-08-01T00:07:32;22.30;94.60
21559;DHT22;10940;48.890;8.240;2022-08-01T00:09:58;22.20;94.80
21559;DHT22;10940;48.890;8.240;2022-08-01T00:12:23;22.10;95.00
21559;DHT22;10940;48.890;8.240;2022-08-01T00:14:49;22.00;95.00
21559;DHT22;10940;48.890;8.240;2022-08-01T00:17:14;22.10;95.00
21559;DHT22;10940;48.890;8.240;2022-08-01T00:19:40;22.10;95.20
21559;DHT22;10940;48.890;8.240;2022-08-01T00:22:06;22.10;95.20
21559;DHT22;10940;48.890;8.240;2022-08-01T00:24:32;22.10;95.30
21559;DHT22;10940;48.890;8.240;2022-08-01T00:26:57;22.10;94.90
21559;DHT22;10940;48.890;8.240;2022-08-01T00:29:23;22.20;94.90
21559;DHT22;10940;48.890;8.240;2022-08-01T00:31:48;22.10;94.80
21559;DHT22;10940;48.890;8.240;2022-08-01T00:34:14;22.10;95.50
21559;DHT22;10940;48.890;8.240;2022-08-01T00:36:39;22.00;95.50
21559;DHT22;10940;48.890;8.240;2022-08-01T00:39:05;22.00;95.80
21559;DHT22;10940;48.890;8.240;2022-08-01T00:41:31;21.90;95.80
21559;DHT22;10940;48.890;8.240;2022-08-01T00:43:56;21.80;95.90
21559;DHT22;10940;48.890;8.240;2022-08-01T00:46:22;21.80;96.10
21559;DHT22;10940;48.890;8.240;2022-08-01T00:48:47;21.80;96.30
21559;DHT22;10940;48.890;8.240;2022-08-01T00:51:13;21.70;96.40
21559;DHT22;10940;48.890;8.240;2022-08-01T00:53:39;21.60;96.60
21559;DHT22;10940;48.890;8.240;2022-08-01T00:56:06;21.60;96.70
21559;DHT22;10940;48.890;8.240;2022-08-01T00:58:32;21.60;96.70
21559;DHT22;10940;48.890;8.240;2022-08-01T01:00:59;21.50;96.80
21559;DHT22;10940;48.890;8.240;2022-08-01T01:03:25;21.40;96.90
21559;DHT22;10940;48.890;8.240;2022-08-01T01:08:43;21.40;97.10
21559;DHT22;10940;48.890;8.240;2022-08-01T01:11:37;21.40;97.00
21559;DHT22;10940;48.890;8.240;2022-08-01T01:14:10;21.40;97.20
21559;DHT22;10940;48.890;8.240;2022-08-01T01:16:40;21.20;97.40
21559;DHT22;10940;48.890;8.240;2022-08-01T01:19:13;21.20;97.60
21559;DHT22;10940;48.890;8.240;2022-08-01T01:24:17;21.20;97.90
21559;DHT22;10940;48.890;8.240;2022-08-01T01:26:52;21.10;98.10
21559;DHT22;10940;48.890;8.240;2022-08-01T01:29:35;21.20;98.30
21559;DHT22;10940;48.890;8.240;2022-08-01T01:32:10;21.20;98.40
21559;DHT22;10940;48.890;8.240;2022-08-01T01:34:41;21.10;98.50
21559;DHT22;10940;48.890;8.240;2022-08-01T01:37:12;21.10;98.50
21559;DHT22;10940;48.890;8.240;2022-08-01T01:39:40;21.10;98.60
21559;DHT22;10940;48.890;8.240;2022-08-01T01:42:07;21.00;98.80
21559;DHT22;10940;48.890;8.240;2022-08-01T01:44:34;21.00;98.90
21559;DHT22;10940;48.890;8.240;2022-08-01T01:47:01;20.90;99.00
21559;DHT22;10940;48.890;8.240;2022-08-01T01:49:28;21.00;99.30
21559;DHT22;10940;48.890;8.240;2022-08-01T01:51:57;20.90;99.50
21559;DHT22;10940;48.890;8.240;2022-08-01T01:57:06;21.00;99.90
21559;DHT22;10940;48.890;8.240;2022-08-01T01:59:35;20.90;99.90
21559;DHT22;10940;48.890;8.240;2022-08-01T02:02:03;20.90;99.90
21559;DHT22;10940;48.890;8.240;2022-08-01T02:04:30;20.80;99.90
21559;DHT22;10940;48.890;8.240;2022-08-01T02:06:59;20.70;99.60
21559;DHT22;10940;48.890;8.240;2022-08-01T02:09:27;20.60;99.90
21559;DHT22;10940;48.890;8.240;2022-08-01T02:11:54;20.70;99.90
21559;DHT22;10940;48.890;8.240;2022-08-01T02:14:21;20.70;99.90
21559;DHT22;10940;48.890;8.240;2022-08-01T02:16:49;20.70;99.90
21559;DHT22;10940;48.890;8.240;2022-08-01T02:19:17;20.60;99.90
21559;DHT22;10940;48.890;8.240;2022-08-01T02:22:00;20.70;99.90
21559;DHT22;10940;48.890;8.240;2022-08-01T02:27:14;20.70;99.90
21559;DHT22;10940;48.890;8.240;2022-08-01T02:29:59;20.70;99.90
21559;DHT22;10940;48.890;8.240;2022-08-01T02:32:31;20.60;99.90
21559;DHT22;10940;48.890;8.240;2022-08-01T02:35:01;20.60;99.90
21559;DHT22;10940;48.890;8.240;2022-08-01T02:37:31;20.70;99.90
21559;DHT22;10940;48.890;8.240;2022-08-01T02:39:59;20.70;99.90
21559;DHT22;10940;48.890;8.240;2022-08-01T02:42:26;20.60;99.90
21559;DHT22;10940;48.890;8.240;2022-08-01T02:44:53;20.60;99.90
21559;DHT22;10940;48.890;8.240;2022-08-01T02:47:20;20.60;99.90
21559;DHT22;10940;48.890;8.240;2022-08-01T02:49:48;20.60;99.90
21559;DHT22;10940;48.890;8.240;2022-08-01T02:52:18;20.60;99.90
21559;DHT22;10940;48.890;8.240;2022-08-01T02:54:48;20.50;99.90
21559;DHT22;10940;48.890;8.240;2022-08-01T02:57:15;20.50;99.90
21559;DHT22;10940;48.890;8.240;2022-08-01T02:59:42;20.40;99.90
21559;DHT22;10940;48.890;8.240;2022-08-01T03:02:08;20.40;99.90
21559;DHT22;10940;48.890;8.240;2022-08-01T03:04:36;20.20;99.90
21559;DHT22;10940;48.890;8.240;2022-08-01T03:07:04;20.20;99.90
21559;DHT22;10940;48.890;8.240;2022-08-01T03:09:36;20.00;99.90
21559;DHT22;10940;48.890;8.240;2022-08-01T03:12:06;19.80;99.90
21559;DHT22;10940;48.890;8.240;2022-08-01T03:14:33;19.60;99.90
21559;DHT22;10940;48.890;8.240;2022-08-01T03:17:00;19.50;99.90
21559;DHT22;10940;48.890;8.240;2022-08-01T03:19:28;19.40;99.90
21559;DHT22;10940;48.890;8.240;2022-08-01T03:21:55;19.30;99.90
21559;DHT22;10940;48.890;8.240;2022-08-01T03:24:25;19.30;99.90
21559;DHT22;10940;48.890;8.240;2022-08-01T03:26:52;19.30;99.90
21559;DHT22;10940;48.890;8.240;2022-08-01T03:29:22;19.30;99.90
21559;DHT22;10940;48.890;8.240;2022-08-01T03:31:50;19.30;99.90
21559;DHT22;10940;48.890;8.240;2022-08-01T03:34:17;19.40;99.90
21559;DHT22;10940;48.890;8.240;2022-08-01T03:36:47;19.40;99.90
21559;DHT22;10940;48.890;8.240;2022-08-01T03:39:14;19.40;99.90
21559;DHT22;10940;48.890;8.240;2022-08-01T03:41:46;19.40;99.90
21559;DHT22;10940;48.890;8.240;2022-08-01T03:44:16;19.30;99.90
21559;DHT22;10940;48.890;8.240;2022-08-01T03:46:58;19.30;99.90
21559;DHT22;10940;48.890;8.240;2022-08-01T03:49:29;19.20;99.90
21559;DHT22;10940;48.890;8.240;2022-08-01T03:51:55;19.20;99.90
21559;DHT22;10940;48.890;8.240;2022-08-01T03:54:24;19.10;99.90
21559;DHT22;10940;48.890;8.240;2022-08-01T03:56:51;19.10;99.90
21559;DHT22;10940;48.890;8.240;2022-08-01T03:59:17;19.10;99.90
21559;DHT22;10940;48.890;8.240;2022-08-01T04:01:45;19.10;99.90
21559;DHT22;10940;48.890;8.240;2022-08-01T04:04:12;19.20;99.90
21559;DHT22;10940;48.890;8.240;2022-08-01T04:06:38;19.20;99.90
21559;DHT22;10940;48.890;8.240;2022-08-01T04:09:04;19.30;99.90
21559;DHT22;10940;48.890;8.240;2022-08-01T04:11:32;19.20;99.90
21559;DHT22;10940;48.890;8.240;2022-08-01T04:13:58;19.30;99.90
21559;DHT22;10940;48.890;8.240;2022-08-01T04:16:24;19.30;99.90
21559;DHT22;10940;48.890;8.240;2022-08-01T04:18:49;19.30;99.90
21559;DHT22;10940;48.890;8.240;2022-08-01T04:21:18;19.40;99.90
21559;DHT22;10940;48.890;8.240;2022-08-01T04:23:46;19.40;99.90
21559;DHT22;10940;48.890;8.240;2022-08-01T04:26:12;19.40;99.90
21559;DHT22;10940;48.890;8.240;2022-08-01T04:28:39;19.60;99.90
21559;DHT22;10940;48.890;8.240;2022-08-01T04:31:08;19.60;99.90
21559;DHT22;10940;48.890;8.240;2022-08-01T04:33:40;19.60;99.90
21559;DHT22;10940;48.890;8.240;2022-08-01T04:36:10;19.80;99.90
21559;DHT22;10940;48.890;8.240;2022-08-01T04:38:36;19.90;99.90
21559;DHT22;10940;48.890;8.240;2022-08-01T04:41:03;19.90;99.90
21559;DHT22;10940;48.890;8.240;2022-08-01T04:43:31;19.90;99.90
21559;DHT22;10940;48.890;8.240;2022-08-01T04:45:58;19.90;99.90
21559;DHT22;10940;48.890;8.240;2022-08-01T04:48:24;19.80;99.90
21559;DHT22;10940;48.890;8.240;2022-08-01T04:50:51;19.90;99.90
21559;DHT22;10940;48.890;8.240;2022-08-01T04:53:18;20.00;99.90
21559;DHT22;10940;48.890;8.240;2022-08-01T04:55:45;20.00;99.90
21559;DHT22;10940;48.890;8.240;2022-08-01T04:58:11;20.00;99.90
21559;DHT22;10940;48.890;8.240;2022-08-01T05:00:37;20.10;99.90
21559;DHT22;10940;48.890;8.240;2022-08-01T05:03:03;20.30;99.90
21559;DHT22;10940;48.890;8.240;2022-08-01T05:05:29;20.30;99.90
21559;DHT22;10940;48.890;8.240;2022-08-01T05:07:56;20.40;99.90
21559;DHT22;10940;48.890;8.240;2022-08-01T05:10:21;20.40;99.90
21559;DHT22;10940;48.890;8.240;2022-08-01T05:12:47;20.50;99.90
21559;DHT22;10940;48.890;8.240;2022-08-01T05:15:13;20.40;99.90
21559;DHT22;10940;48.890;8.240;2022-08-01T05:17:38;20.40;99.90
21559;DHT22;10940;48.890;8.240;2022-08-01T05:20:04;20.60;99.90
21559;DHT22;10940;48.890;8.240;2022-08-01T05:22:31;20.70;99.90
21559;DHT22;10940;48.890;8.240;2022-08-01T05:24:57;20.70;99.90
21559;DHT22;10940;48.890;8.240;2022-08-01T05:27:25;20.70;99.90
21559;DHT22;10940;48.890;8.240;2022-08-01T05:29:50;20.80;99.90
21559;DHT22;10940;48.890;8.240;2022-08-01T05:32:16;20.90;99.90
21559;DHT22;10940;48.890;8.240;2022-08-01T05:34:42;21.00;99.90
21559;DHT22;10940;48.890;8.240;2022-08-01T05:37:08;21.00;99.90
21559;DHT22;10940;48.890;8.240;2022-08-01T05:39:33;21.00;99.90
21559;DHT22;10940;48.890;8.240;2022-08-01T05:41:59;21.10;99.90
21559;DHT22;10940;48.890;8.240;2022-08-01T05:44:24;21.10;99.90
21559;DHT22;10940;48.890;8.240;2022-08-01T05:46:50;21.20;99.90
21559;DHT22;10940;48.890;8.240;2022-08-01T05:49:16;21.30;99.90
21559;DHT22;10940;48.890;8.240;2022-08-01T05:51:42;21.50;99.90
21559;DHT22;10940;48.890;8.240;2022-08-01T05:54:07;21.60;99.90
21559;DHT22;10940;48.890;8.240;2022-08-01T05:56:33;21.80;99.90
21559;DHT22;10940;48.890;8.240;2022-08-01T05:58:58;21.90;99.90
21559;DHT22;10940;48.890;8.240;2022-08-01T06:01:24;22.00;99.90
21559;DHT22;10940;48.890;8.240;2022-08-01T06:03:50;22.00;99.90
21559;DHT22;10940;48.890;8.240;2022-08-01T06:06:16;22.20;99.90
21559;DHT22;10940;48.890;8.240;2022-08-01T06:08:41;22.10;99.90
21559;DHT22;10940;48.890;8.240;2022-08-01T06:11:07;22.30;99.90
21559;DHT22;10940;48.890;8.240;2022-08-01T06:13:33;22.40;99.90
21559;DHT22;10940;48.890;8.240;2022-08-01T06:15:58;22.40;99.90
21559;DHT22;10940;48.890;8.240;2022-08-01T06:18:24;22.50;99.90
21559;DHT22;10940;48.890;8.240;2022-08-01T06:20:49;22.60;99.90
21559;DHT22;10940;48.890;8.240;2022-08-01T06:23:15;22.60;99.90
21559;DHT22;10940;48.890;8.240;2022-08-01T06:25:42;22.80;99.90
21559;DHT22;10940;48.890;8.240;2022-08-01T06:28:07;22.80;99.90
21559;DHT22;10940;48.890;8.240;2022-08-01T06:30:33;22.90;99.90
21559;DHT22;10940;48.890;8.240;2022-08-01T06:32:58;22.90;99.90
21559;DHT22;10940;48.890;8.240;2022-08-01T06:35:26;22.90;99.90
21559;DHT22;10940;48.890;8.240;2022-08-01T06:37:52;22.90;99.90
21559;DHT22;10940;48.890;8.240;2022-08-01T06:40:17;23.00;99.90
21559;DHT22;10940;48.890;8.240;2022-08-01T06:42:44;23.00;99.90
21559;DHT22;10940;48.890;8.240;2022-08-01T06:45:12;23.10;99.90
21559;DHT22;10940;48.890;8.240;2022-08-01T06:47:41;23.00;99.90
21559;DHT22;10940;48.890;8.240;2022-08-01T06:50:08;23.10;99.90
21559;DHT22;10940;48.890;8.240;2022-08-01T06:52:34;23.00;99.90
21559;DHT22;10940;48.890;8.240;2022-08-01T06:55:01;23.00;99.90
21559;DHT22;10940;48.890;8.240;2022-08-01T06:57:27;23.00;99.90
21559;DHT22;10940;48.890;8.240;2022-08-01T06:59:53;23.00;99.90
21559;DHT22;10940;48.890;8.240;2022-08-01T07:02:19;23.10;99.90
21559;DHT22;10940;48.890;8.240;2022-08-01T07:04:44;23.30;99.90
21559;DHT22;10940;48.890;8.240;2022-08-01T07:07:11;23.40;99.90
21559;DHT22;10940;48.890;8.240;2022-08-01T07:09:36;23.50;99.90
21559;DHT22;10940;48.890;8.240;2022-08-01T07:12:03;23.70;99.90
21559;DHT22;10940;48.890;8.240;2022-08-01T07:14:29;23.80;99.90
21559;DHT22;10940;48.890;8.240;2022-08-01T07:16:54;23.80;99.90
21559;DHT22;10940;48.890;8.240;2022-08-01T07:19:20;23.80;99.90
21559;DHT22;10940;48.890;8.240;2022-08-01T07:21:46;23.90;99.90
21559;DHT22;10940;48.890;8.240;2022-08-01T07:24:13;24.00;99.90
21559;DHT22;10940;48.890;8.240;2022-08-01T07:26:40;24.10;99.90
21559;DHT22;10940;48.890;8.240;2022-08-01T07:29:06;24.10;99.90
21559;DHT22;10940;48.890;8.240;2022-08-01T07:31:32;24.10;99.90
21559;DHT22;10940;48.890;8.240;2022-08-01T07:33:57;24.10;99.90
21559;DHT22;10940;48.890;8.240;2022-08-01T07:36:23;24.20;99.90
21559;DHT22;10940;48.890;8.240;2022-08-01T07:38:48;24.10;99.90
21559;DHT22;10940;48.890;8.240;2022-08-01T07:41:15;24.10;99.90
21559;DHT22;10940;48.890;8.240;2022-08-01T07:43:41;24.10;99.90
21559;DHT22;10940;48.890;8.240;2022-08-01T07:46:06;24.10;99.90
21559;DHT22;10940;48.890;8.240;2022-08-01T07:48:33;24.10;99.90
21559;DHT22;10940;48.890;8.240;2022-08-01T07:50:59;24.20;99.90
21559;DHT22;10940;48.890;8.240;2022-08-01T07:53:24;24.30;99.90
21559;DHT22;10940;48.890;8.240;2022-08-01T07:55:50;24.40;99.90
21559;DHT22;10940;48.890;8.240;2022-08-01T07:58:16;24.50;99.90
21559;DHT22;10940;48.890;8.240;2022-08-01T08:00:42;24.80;99.90
21559;DHT22;10940;48.890;8.240;2022-08-01T08:03:08;24.90;99.90
21559;DHT22;10940;48.890;8.240;2022-08-01T08:05:33;25.10;99.90
21559;DHT22;10940;48.890;8.240;2022-08-01T08:08:09;25.20;99.90
21559;DHT22;10940;48.890;8.240;2022-08-01T08:10:39;25.30;99.90
21559;DHT22;10940;48.890;8.240;2022-08-01T08:13:05;25.40;99.90
21559;DHT22;10940;48.890;8.240;2022-08-01T08:15:30;25.50;99.90
21559;DHT22;10940;48.890;8.240;2022-08-01T08:17:56;25.60;99.90
21559;DHT22;10940;48.890;8.240;2022-08-01T08:20:22;25.60;99.90
21559;DHT22;10940;48.890;8.240;2022-08-01T08:22:50;25.70;99.90
21559;DHT22;10940;48.890;8.240;2022-08-01T08:25:17;26.00;99.90
21559;DHT22;10940;48.890;8.240;2022-08-01T08:27:44;26.20;99.90
21559;DHT22;10940;48.890;8.240;2022-08-01T08:30:10;26.30;99.90
21559;DHT22;10940;48.890;8.240;2022-08-01T08:32:36;26.30;99.90
21559;DHT22;10940;48.890;8.240;2022-08-01T08:35:03;26.40;99.90
21559;DHT22;10940;48.890;8.240;2022-08-01T08:37:29;26.50;99.90
21559;DHT22;10940;48.890;8.240;2022-08-01T08:39:54;26.50;99.90
21559;DHT22;10940;48.890;8.240;2022-08-01T08:42:20;26.50;99.90
21559;DHT22;10940;48.890;8.240;2022-08-01T08:44:46;26.50;99.90
21559;DHT22;10940;48.890;8.240;2022-08-01T08:47:13;26.50;99.90
21559;DHT22;10940;48.890;8.240;2022-08-01T08:49:39;26.60;99.90
21559;DHT22;10940;48.890;8.240;2022-08-01T08:52:07;26.70;99.90
21559;DHT22;10940;48.890;8.240;2022-08-01T08:54:35;26.80;99.60
21559;DHT22;10940;48.890;8.240;2022-08-01T08:57:02;26.80;99.50
21559;DHT22;10940;48.890;8.240;2022-08-01T08:59:28;26.90;99.10
21559;DHT22;10940;48.890;8.240;2022-08-01T09:01:54;27.00;99.00
21559;DHT22;10940;48.890;8.240;2022-08-01T09:04:21;27.00;98.90
21559;DHT22;10940;48.890;8.240;2022-08-01T09:06:50;27.00;98.80
21559;DHT22;10940;48.890;8.240;2022-08-01T09:09:16;26.90;98.60
21559;DHT22;10940;48.890;8.240;2022-08-01T09:11:42;26.90;98.60
21559;DHT22;10940;48.890;8.240;2022-08-01T09:14:13;26.90;98.80
21559;DHT22;10940;48.890;8.240;2022-08-01T09:16:43;26.90;99.20
21559;DHT22;10940;48.890;8.240;2022-08-01T09:19:18;26.90;99.10
21559;DHT22;10940;48.890;8.240;2022-08-01T09:22:02;27.00;98.60
21559;DHT22;10940;48.890;8.240;2022-08-01T09:24:30;27.20;99.00
21559;DHT22;10940;48.890;8.240;2022-08-01T09:26:56;27.30;98.40
21559;DHT22;10940;48.890;8.240;2022-08-01T09:29:28;27.40;98.60
21559;DHT22;10940;48.890;8.240;2022-08-01T09:31:55;27.50;97.80
21559;DHT22;10940;48.890;8.240;2022-08-01T09:34:29;27.50;97.80
21559;DHT22;10940;48.890;8.240;2022-08-01T09:36:58;27.50;98.20
21559;DHT22;10940;48.890;8.240;2022-08-01T09:39:27;27.50;97.70
21559;DHT22;10940;48.890;8.240;2022-08-01T09:41:56;27.60;97.80
21559;DHT22;10940;48.890;8.240;2022-08-01T09:44:39;27.60;97.70
21559;DHT22;10940;48.890;8.240;2022-08-01T09:47:05;27.70;97.50
21559;DHT22;10940;48.890;8.240;2022-08-01T09:49:33;27.60;97.20
21559;DHT22;10940;48.890;8.240;2022-08-01T09:52:16;27.60;97.20
21559;DHT22;10940;48.890;8.240;2022-08-01T09:54:43;27.50;97.60
21559;DHT22;10940;48.890;8.240;2022-08-01T09:57:18;27.50;97.30
21559;DHT22;10940;48.890;8.240;2022-08-01T09:59:46;27.50;97.30
21559;DHT22;10940;48.890;8.240;2022-08-01T10:02:13;27.50;97.70
21559;DHT22;10940;48.890;8.240;2022-08-01T10:04:48;27.40;98.30
21559;DHT22;10940;48.890;8.240;2022-08-01T10:07:14;27.50;97.30
21559;DHT22;10940;48.890;8.240;2022-08-01T10:09:42;27.50;97.30
21559;DHT22;10940;48.890;8.240;2022-08-01T10:12:09;27.50;97.30
21559;DHT22;10940;48.890;8.240;2022-08-01T10:14:37;27.40;97.40
21559;DHT22;10940;48.890;8.240;2022-08-01T10:17:03;27.50;97.50
21559;DHT22;10940;48.890;8.240;2022-08-01T10:19:32;27.50;97.60
21559;DHT22;10940;48.890;8.240;2022-08-01T10:21:58;27.50;97.10
21559;DHT22;10940;48.890;8.240;2022-08-01T10:24:25;27.50;97.00
21559;DHT22;10940;48.890;8.240;2022-08-01T10:26:54;27.40;97.20
21559;DHT22;10940;48.890;8.240;2022-08-01T10:29:21;27.40;97.20
21559;DHT22;10940;48.890;8.240;2022-08-01T10:31:48;27.60;97.60
21559;DHT22;10940;48.890;8.240;2022-08-01T10:34:15;27.70;97.50
21559;DHT22;10940;48.890;8.240;2022-08-01T10:36:44;28.00;97.30
21559;DHT22;10940;48.890;8.240;2022-08-01T10:39:11;28.20;96.20
21559;DHT22;10940;48.890;8.240;2022-08-01T10:41:38;28.60;96.80
21559;DHT22;10940;48.890;8.240;2022-08-01T10:44:06;28.90;95.50
21559;DHT22;10940;48.890;8.240;2022-08-01T10:46:37;29.10;94.40
21559;DHT22;10940;48.890;8.240;2022-08-01T10:49:06;29.20;94.90
21559;DHT22;10940;48.890;8.240;2022-08-01T10:51:36;29.30;94.30
21559;DHT22;10940;48.890;8.240;2022-08-01T10:54:06;29.40;93.80
21559;DHT22;10940;48.890;8.240;2022-08-01T10:56:46;29.60;94.40
21559;DHT22;10940;48.890;8.240;2022-08-01T11:02:02;29.90;93.30
21559;DHT22;10940;48.890;8.240;2022-08-01T11:07:08;29.40;93.90
21559;DHT22;10940;48.890;8.240;2022-08-01T11:09:48;29.20;94.00
21559;DHT22;10940;48.890;8.240;2022-08-01T11:12:38;29.00;93.80
21559;DHT22;10940;48.890;8.240;2022-08-01T11:20:06;29.10;94.10
21559;DHT22;10940;48.890;8.240;2022-08-01T11:22:32;29.40;93.50
21559;DHT22;10940;48.890;8.240;2022-08-01T11:25:17;29.60;92.90
21559;DHT22;10940;48.890;8.240;2022-08-01T11:27:43;29.90;92.30
21559;DHT22;10940;48.890;8.240;2022-08-01T11:32:57;30.20;93.10
21559;DHT22;10940;48.890;8.240;2022-08-01T11:35:24;30.20;92.40
21559;DHT22;10940;48.890;8.240;2022-08-01T11:37:55;30.20;91.70
21559;DHT22;10940;48.890;8.240;2022-08-01T11:42:51;30.90;90.60
21559;DHT22;10940;48.890;8.240;2022-08-01T11:48:24;32.50;89.00
21559;DHT22;10940;48.890;8.240;2022-08-01T11:50:51;32.70;85.50
21559;DHT22;10940;48.890;8.240;2022-08-01T11:53:18;32.80;84.30
21559;DHT22;10940;48.890;8.240;2022-08-01T11:55:49;32.70;85.30
21559;DHT22;10940;48.890;8.240;2022-08-01T11:58:19;32.60;86.30
21559;DHT22;10940;48.890;8.240;2022-08-01T12:00:55;33.00;85.00
21559;DHT22;10940;48.890;8.240;2022-08-01T12:03:26;33.30;85.00
21559;DHT22;10940;48.890;8.240;2022-08-01T12:05:53;33.30;82.60
21559;DHT22;10940;48.890;8.240;2022-08-01T12:08:32;33.30;83.40
21559;DHT22;10940;48.890;8.240;2022-08-01T12:11:00;33.20;83.40
21559;DHT22;10940;48.890;8.240;2022-08-01T12:13:26;33.00;83.70
21559;DHT22;10940;48.890;8.240;2022-08-01T12:15:52;32.50;83.80
21559;DHT22;10940;48.890;8.240;2022-08-01T12:18:18;31.60;86.20
21559;DHT22;10940;48.890;8.240;2022-08-01T12:20:45;30.90;88.70
21559;DHT22;10940;48.890;8.240;2022-08-01T12:23:14;30.20;90.20
21559;DHT22;10940;48.890;8.240;2022-08-01T12:25:40;29.90;90.80
21559;DHT22;10940;48.890;8.240;2022-08-01T12:28:10;29.90;90.90
21559;DHT22;10940;48.890;8.240;2022-08-01T12:30:38;30.10;90.80
21559;DHT22;10940;48.890;8.240;2022-08-01T12:33:06;30.50;91.00
21559;DHT22;10940;48.890;8.240;2022-08-01T12:35:34;30.90;89.10
21559;DHT22;10940;48.890;8.240;2022-08-01T12:38:06;31.20;90.40
21559;DHT22;10940;48.890;8.240;2022-08-01T12:40:34;31.30;87.50
21559;DHT22;10940;48.890;8.240;2022-08-01T12:43:05;31.10;87.30
21559;DHT22;10940;48.890;8.240;2022-08-01T12:45:39;31.10;87.40
21559;DHT22;10940;48.890;8.240;2022-08-01T12:48:13;30.80;87.20
21559;DHT22;10940;48.890;8.240;2022-08-01T12:50:42;30.60;87.50
21559;DHT22;10940;48.890;8.240;2022-08-01T12:53:09;30.50;88.80
21559;DHT22;10940;48.890;8.240;2022-08-01T12:55:46;30.70;88.40
21559;DHT22;10940;48.890;8.240;2022-08-01T12:58:13;31.10;88.20
21559;DHT22;10940;48.890;8.240;2022-08-01T13:00:40;31.30;88.60
21559;DHT22;10940;48.890;8.240;2022-08-01T13:03:12;31.70;85.20
21559;DHT22;10940;48.890;8.240;2022-08-01T13:05:47;31.70;83.50
21559;DHT22;10940;48.890;8.240;2022-08-01T13:08:32;31.90;84.10
21559;DHT22;10940;48.890;8.240;2022-08-01T13:11:16;31.90;84.10
21559;DHT22;10940;48.890;8.240;2022-08-01T13:13:47;31.60;84.70
21559;DHT22;10940;48.890;8.240;2022-08-01T13:16:15;31.50;84.50
21559;DHT22;10940;48.890;8.240;2022-08-01T13:18:48;31.50;85.10
21559;DHT22;10940;48.890;8.240;2022-08-01T13:21:16;31.70;84.30
21559;DHT22;10940;48.890;8.240;2022-08-01T13:24:06;31.70;83.50
21559;DHT22;10940;48.890;8.240;2022-08-01T13:26:50;31.30;83.00
21559;DHT22;10940;48.890;8.240;2022-08-01T13:29:18;30.90;84.30
21559;DHT22;10940;48.890;8.240;2022-08-01T13:31:44;30.80;85.40
21559;DHT22;10940;48.890;8.240;2022-08-01T13:34:10;31.00;83.80
21559;DHT22;10940;48.890;8.240;2022-08-01T13:36:37;31.20;84.50
21559;DHT22;10940;48.890;8.240;2022-08-01T13:39:04;31.30;83.70
21559;DHT22;10940;48.890;8.240;2022-08-01T13:41:48;31.20;84.10
21559;DHT22;10940;48.890;8.240;2022-08-01T13:44:14;31.10;84.70
21559;DHT22;10940;48.890;8.240;2022-08-01T13:46:42;31.20;83.60
21559;DHT22;10940;48.890;8.240;2022-08-01T13:49:08;31.10;83.80
21559;DHT22;10940;48.890;8.240;2022-08-01T13:51:35;31.10;84.00
21559;DHT22;10940;48.890;8.240;2022-08-01T13:54:01;31.10;83.40
21559;DHT22;10940;48.890;8.240;2022-08-01T13:56:27;31.20;84.10
21559;DHT22;10940;48.890;8.240;2022-08-01T13:58:54;31.30;82.70
21559;DHT22;10940;48.890;8.240;2022-08-01T14:01:20;31.50;82.30
21559;DHT22;10940;48.890;8.240;2022-08-01T14:03:47;31.60;82.10
21559;DHT22;10940;48.890;8.240;2022-08-01T14:06:13;31.70;82.80
21559;DHT22;10940;48.890;8.240;2022-08-01T14:08:44;31.80;82.50
21559;DHT22;10940;48.890;8.240;2022-08-01T14:11:09;31.90;81.30
21559;DHT22;10940;48.890;8.240;2022-08-01T14:13:35;32.10;80.90
21559;DHT22;10940;48.890;8.240;2022-08-01T14:16:04;32.10;80.80
21559;DHT22;10940;48.890;8.240;2022-08-01T14:18:30;32.10;80.40
21559;DHT22;10940;48.890;8.240;2022-08-01T14:20:55;32.20;82.90
21559;DHT22;10940;48.890;8.240;2022-08-01T14:23:21;32.20;80.60
21559;DHT22;10940;48.890;8.240;2022-08-01T14:25:46;31.90;80.50
21559;DHT22;10940;48.890;8.240;2022-08-01T14:28:12;31.60;81.70
21559;DHT22;10940;48.890;8.240;2022-08-01T14:30:37;31.40;82.30
21559;DHT22;10940;48.890;8.240;2022-08-01T14:33:04;31.20;83.10
21559;DHT22;10940;48.890;8.240;2022-08-01T14:35:29;31.10;83.70
21559;DHT22;10940;48.890;8.240;2022-08-01T14:37:55;30.90;83.40
21559;DHT22;10940;48.890;8.240;2022-08-01T14:40:21;30.80;83.60
21559;DHT22;10940;48.890;8.240;2022-08-01T14:42:47;30.70;84.30
21559;DHT22;10940;48.890;8.240;2022-08-01T14:45:14;30.50;85.30
21559;DHT22;10940;48.890;8.240;2022-08-01T14:47:41;30.50;84.90
21559;DHT22;10940;48.890;8.240;2022-08-01T14:50:10;30.40;86.30
21559;DHT22;10940;48.890;8.240;2022-08-01T14:52:37;30.30;85.20
21559;DHT22;10940;48.890;8.240;2022-08-01T14:55:04;30.20;86.70
21559;DHT22;10940;48.890;8.240;2022-08-01T14:57:29;30.10;85.70
21559;DHT22;10940;48.890;8.240;2022-08-01T14:59:55;30.10;85.20
21559;DHT22;10940;48.890;8.240;2022-08-01T15:02:21;30.00;85.20
21559;DHT22;10940;48.890;8.240;2022-08-01T15:04:47;29.90;86.10
21559;DHT22;10940;48.890;8.240;2022-08-01T15:07:14;29.90;86.90
21559;DHT22;10940;48.890;8.240;2022-08-01T15:09:41;29.90;86.50
21559;DHT22;10940;48.890;8.240;2022-08-01T15:12:07;30.00;86.70
21559;DHT22;10940;48.890;8.240;2022-08-01T15:14:33;30.10;85.60
21559;DHT22;10940;48.890;8.240;2022-08-01T15:17:15;30.10;85.00
21559;DHT22;10940;48.890;8.240;2022-08-01T15:19:40;30.00;86.10
21559;DHT22;10940;48.890;8.240;2022-08-01T15:22:06;30.10;86.60
21559;DHT22;10940;48.890;8.240;2022-08-01T15:24:32;30.30;86.50
21559;DHT22;10940;48.890;8.240;2022-08-01T15:26:57;30.50;86.50
21559;DHT22;10940;48.890;8.240;2022-08-01T15:29:23;30.60;87.50
21559;DHT22;10940;48.890;8.240;2022-08-01T15:31:49;30.70;87.20
21559;DHT22;10940;48.890;8.240;2022-08-01T15:34:15;30.70;87.30
21559;DHT22;10940;48.890;8.240;2022-08-01T15:36:40;30.70;86.60
21559;DHT22;10940;48.890;8.240;2022-08-01T15:39:08;30.60;86.80
21559;DHT22;10940;48.890;8.240;2022-08-01T15:41:34;30.50;86.80
21559;DHT22;10940;48.890;8.240;2022-08-01T15:43:59;30.50;87.70
21559;DHT22;10940;48.890;8.240;2022-08-01T15:46:25;30.40;87.10
21559;DHT22;10940;48.890;8.240;2022-08-01T15:48:50;30.60;87.70
21559;DHT22;10940;48.890;8.240;2022-08-01T15:51:16;30.40;87.50
21559;DHT22;10940;48.890;8.240;2022-08-01T15:53:41;30.40;87.90
21559;DHT22;10940;48.890;8.240;2022-08-01T15:56:07;30.20;87.70
21559;DHT22;10940;48.890;8.240;2022-08-01T15:58:33;30.10;87.80
21559;DHT22;10940;48.890;8.240;2022-08-01T16:00:59;30.00;87.50
21559;DHT22;10940;48.890;8.240;2022-08-01T16:03:24;29.80;88.40